sensor_id;sensor_type;location;lat;lon;timestamp;pressure;altitude;pressure_sealevel;temperature;humidity
63665;BME280;49820;33.966;73.390;2023-05-25T03:18:40;78671.44;;;10.76;100.00
63665;BME280;49820;33.966;73.390;2023-05-25T03:21:10;78638.06;;;10.75;100.00
63665;BME280;49820;33.966;73.390;2023-05-25T03:23:39;78638.13;;;10.97;100.00
63665;BME280;49820;33.966;73.390;2023-05-25T03:26:08;78657.94;;;11.06;100.00
63665;BME280;49820;33.966;73.390;2023-05-25T03:28:38;78667.44;;;11.26;100.00
63665;BME280;49820;33.966;73.390;2023-05-25T03:31:10;78644.13;;;11.23;100.00
63665;BME280;49820;33.966;73.390;2023-05-25T03:33:40;78652.34;;;11.39;100.00
63665;BME280;49820;33.966;73.390;2023-05-25T03:36:10;78659.44;;;11.49;100.00
63665;BME280;49820;33.966;73.390;2023-05-25T03:38:42;78655.28;;;11.54;100.00
63665;BME280;49820;33.966;73.390;2023-05-25T03:41:11;78678.13;;;11.99;100.00
63665;BME280;49820;33.966;73.390;2023-05-25T03:43:42;78673.81;;;12.08;100.00
63665;BME280;49820;33.966;73.390;2023-05-25T03:46:11;78677.38;;;12.23;100.00
63665;BME280;49820;33.966;73.390;2023-05-25T03:48:42;78649.25;;;12.24;100.00
63665;BME280;49820;33.966;73.390;2023-05-25T03:51:11;78656.38;;;12.52;100.00
63665;BME280;49820;33.966;73.390;2023-05-25T03:53:41;78654.09;;;12.61;100.00
63665;BME280;49820;33.966;73.390;2023-05-25T03:56:10;78667.84;;;13.71;100.00
63665;BME280;49820;33.966;73.390;2023-05-25T03:58:39;78650.41;;;14.45;100.00
63665;BME280;49820;33.966;73.390;2023-05-25T04:01:14;78666.91;;;15.40;100.00
63665;BME280;49820;33.966;73.390;2023-05-25T04:03:44;78680.00;;;15.98;92.66
63665;BME280;49820;33.966;73.390;2023-05-25T04:06:13;78655.34;;;16.08;86.65
63665;BME280;49820;33.966;73.390;2023-05-25T04:08:48;78672.97;;;16.68;66.92
63665;BME280;49820;33.966;73.390;2023-05-25T04:11:18;78673.47;;;17.16;74.42
63665;BME280;49820;33.966;73.390;2023-05-25T04:13:49;78676.84;;;18.30;92.37
63665;BME280;49820;33.966;73.390;2023-05-25T04:16:18;78661.84;;;18.19;58.72
63665;BME280;49820;33.966;73.390;2023-05-25T04:18:49;78683.19;;;18.92;64.00
63665;BME280;49820;33.966;73.390;2023-05-25T04:21:20;78680.22;;;19.74;92.02
63665;BME280;49820;33.966;73.390;2023-05-25T04:23:49;78680.22;;;19.87;100.00
63665;BME280;49820;33.966;73.390;2023-05-25T04:26:18;78652.59;;;19.72;100.00
63665;BME280;49820;33.966;73.390;2023-05-25T04:28:50;78662.72;;;20.09;83.12
63665;BME280;49820;33.966;73.390;2023-05-25T04:31:26;78653.34;;;20.32;68.49
63665;BME280;49820;33.966;73.390;2023-05-25T04:34:10;78670.50;;;21.23;80.62
63665;BME280;49820;33.966;73.390;2023-05-25T04:36:49;78675.53;;;21.97;77.84
63665;BME280;49820;33.966;73.390;2023-05-25T04:39:19;78662.00;;;22.40;90.46
63665;BME280;49820;33.966;73.390;2023-05-25T04:41:53;78654.25;;;22.87;87.85
63665;BME280;49820;33.966;73.390;2023-05-25T04:44:24;78678.75;;;22.66;83.61
63665;BME280;49820;33.966;73.390;2023-05-25T04:46:58;78629.22;;;22.85;56.23
63665;BME280;49820;33.966;73.390;2023-05-25T04:49:31;78646.88;;;22.75;57.62
63665;BME280;49820;33.966;73.390;2023-05-25T04:52:01;78648.50;;;23.34;70.88
63665;BME280;49820;33.966;73.390;2023-05-25T04:54:31;78649.59;;;22.86;54.72
63665;BME280;49820;33.966;73.390;2023-05-25T04:57:01;78657.63;;;23.09;53.84
63665;BME280;49820;33.966;73.390;2023-05-25T04:59:31;78666.81;;;22.71;49.63
63665;BME280;49820;33.966;73.390;2023-05-25T05:02:01;78641.22;;;23.19;54.75
63665;BME280;49820;33.966;73.390;2023-05-25T05:04:30;78660.78;;;23.94;73.87
63665;BME280;49820;33.966;73.390;2023-05-25T05:07:00;78646.91;;;23.88;59.37
63665;BME280;49820;33.966;73.390;2023-05-25T05:09:32;78653.56;;;24.10;52.79
63665;BME280;49820;33.966;73.390;2023-05-25T05:12:02;78648.34;;;23.87;61.00
63665;BME280;49820;33.966;73.390;2023-05-25T05:14:36;78656.72;;;24.34;63.35
63665;BME280;49820;33.966;73.390;2023-05-25T05:17:06;78665.63;;;24.24;63.83
63665;BME280;49820;33.966;73.390;2023-05-25T05:19:35;78656.06;;;24.33;65.94
63665;BME280;49820;33.966;73.390;2023-05-25T05:22:07;78655.88;;;24.46;66.16
63665;BME280;49820;33.966;73.390;2023-05-25T05:24:37;78656.09;;;24.72;71.80
63665;BME280;49820;33.966;73.390;2023-05-25T05:27:08;78654.78;;;24.90;66.46
63665;BME280;49820;33.966;73.390;2023-05-25T05:29:46;78662.16;;;24.34;58.23
63665;BME280;49820;33.966;73.390;2023-05-25T05:32:15;78679.63;;;24.18;56.02
63665;BME280;49820;33.966;73.390;2023-05-25T05:34:44;78679.53;;;24.69;54.38
63665;BME280;49820;33.966;73.390;2023-05-25T05:37:28;78678.03;;;24.81;78.26
63665;BME280;49820;33.966;73.390;2023-05-25T05:39:58;78671.56;;;25.14;59.22
63665;BME280;49820;33.966;73.390;2023-05-25T05:42:27;78647.28;;;24.42;56.35
63665;BME280;49820;33.966;73.390;2023-05-25T05:44:56;78670.88;;;25.52;61.08
63665;BME280;49820;33.966;73.390;2023-05-25T05:47:26;78644.75;;;24.78;46.07
63665;BME280;49820;33.966;73.390;2023-05-25T05:49:55;78656.88;;;25.28;51.13
63665;BME280;49820;33.966;73.390;2023-05-25T05:52:25;78649.38;;;25.65;57.10
63665;BME280;49820;33.966;73.390;2023-05-25T05:54:55;78669.66;;;25.60;50.34
63665;BME280;49820;33.966;73.390;2023-05-25T05:57:24;78659.91;;;25.52;54.37
63665;BME280;49820;33.966;73.390;2023-05-25T05:59:54;78663.59;;;26.04;53.79
63665;BME280;49820;33.966;73.390;2023-05-25T06:02:24;78654.94;;;26.19;55.53
63665;BME280;49820;33.966;73.390;2023-05-25T06:04:54;78665.84;;;25.74;50.88
63665;BME280;49820;33.966;73.390;2023-05-25T06:07:24;78649.59;;;25.72;58.01
63665;BME280;49820;33.966;73.390;2023-05-25T06:09:55;78661.47;;;26.33;49.52
63665;BME280;49820;33.966;73.390;2023-05-25T06:12:25;78648.78;;;26.46;48.20
63665;BME280;49820;33.966;73.390;2023-05-25T06:14:55;78652.09;;;26.83;54.88
63665;BME280;49820;33.966;73.390;2023-05-25T06:17:25;78652.97;;;26.45;46.34
63665;BME280;49820;33.966;73.390;2023-05-25T06:19:58;78653.91;;;26.33;45.78
63665;BME280;49820;33.966;73.390;2023-05-25T06:22:28;78660.53;;;25.72;46.69
63665;BME280;49820;33.966;73.390;2023-05-25T06:24:57;78655.78;;;25.90;48.87
63665;BME280;49820;33.966;73.390;2023-05-25T06:27:27;78665.41;;;25.05;49.32
63665;BME280;49820;33.966;73.390;2023-05-25T06:29:56;78660.91;;;25.29;48.07
63665;BME280;49820;33.966;73.390;2023-05-25T06:32:25;78646.88;;;25.80;44.30
63665;BME280;49820;33.966;73.390;2023-05-25T06:34:55;78651.84;;;25.22;57.27
63665;BME280;49820;33.966;73.390;2023-05-25T06:37:25;78664.28;;;26.50;54.59
63665;BME280;49820;33.966;73.390;2023-05-25T06:39:54;78653.91;;;26.33;49.13
63665;BME280;49820;33.966;73.390;2023-05-25T06:42:24;78671.88;;;26.58;46.32
63665;BME280;49820;33.966;73.390;2023-05-25T06:44:57;78638.88;;;25.87;47.17
63665;BME280;49820;33.966;73.390;2023-05-25T06:47:26;78655.09;;;26.62;55.17
63665;BME280;49820;33.966;73.390;2023-05-25T06:49:58;78664.19;;;25.96;53.76
63665;BME280;49820;33.966;73.390;2023-05-25T06:52:28;78651.97;;;25.67;47.62
63665;BME280;49820;33.966;73.390;2023-05-25T06:54:57;78680.38;;;26.45;45.42
63665;BME280;49820;33.966;73.390;2023-05-25T06:57:26;78660.13;;;25.87;47.73
63665;BME280;49820;33.966;73.390;2023-05-25T06:59:55;78686.22;;;26.58;53.43
63665;BME280;49820;33.966;73.390;2023-05-25T07:02:24;78649.91;;;25.48;49.41
63665;BME280;49820;33.966;73.390;2023-05-25T07:04:53;78649.81;;;25.87;49.50
63665;BME280;49820;33.966;73.390;2023-05-25T07:07:23;78674.28;;;26.62;51.00
63665;BME280;49820;33.966;73.390;2023-05-25T07:09:52;78658.16;;;25.76;47.38
63665;BME280;49820;33.966;73.390;2023-05-25T07:12:21;78669.59;;;24.55;49.73
63665;BME280;49820;33.966;73.390;2023-05-25T07:14:50;78655.03;;;23.99;52.02
63665;BME280;49820;33.966;73.390;2023-05-25T07:17:20;78674.47;;;23.11;49.36
63665;BME280;49820;33.966;73.390;2023-05-25T07:19:49;78668.66;;;22.96;51.44
63665;BME280;49820;33.966;73.390;2023-05-25T07:22:19;78659.03;;;23.08;59.46
63665;BME280;49820;33.966;73.390;2023-05-25T07:24:51;78672.00;;;23.80;66.97
63665;BME280;49820;33.966;73.390;2023-05-25T07:27:20;78673.13;;;23.42;54.25
63665;BME280;49820;33.966;73.390;2023-05-25T07:29:49;78659.94;;;22.72;59.62
63665;BME280;49820;33.966;73.390;2023-05-25T07:32:19;78632.19;;;22.17;63.70
63665;BME280;49820;33.966;73.390;2023-05-25T07:34:48;78655.38;;;22.16;59.45
63665;BME280;49820;33.966;73.390;2023-05-25T07:37:17;78673.81;;;21.92;64.36
63665;BME280;49820;33.966;73.390;2023-05-25T07:39:46;78636.69;;;21.99;74.24
63665;BME280;49820;33.966;73.390;2023-05-25T07:42:16;78667.63;;;22.91;58.55
63665;BME280;49820;33.966;73.390;2023-05-25T07:44:49;78621.88;;;23.34;50.03
63665;BME280;49820;33.966;73.390;2023-05-25T07:47:18;78653.63;;;23.59;53.12
63665;BME280;49820;33.966;73.390;2023-05-25T07:49:47;78661.38;;;22.50;56.18
63665;BME280;49820;33.966;73.390;2023-05-25T07:52:16;78641.66;;;22.39;57.80
63665;BME280;49820;33.966;73.390;2023-05-25T07:54:46;78649.22;;;23.94;53.04
63665;BME280;49820;33.966;73.390;2023-05-25T07:57:16;78612.44;;;23.63;50.61
63665;BME280;49820;33.966;73.390;2023-05-25T07:59:45;78646.31;;;24.75;52.89
63665;BME280;49820;33.966;73.390;2023-05-25T08:02:14;78645.59;;;24.47;52.18
63665;BME280;49820;33.966;73.390;2023-05-25T08:04:44;78607.34;;;23.68;54.96
63665;BME280;49820;33.966;73.390;2023-05-25T08:07:13;78634.28;;;23.01;64.26
63665;BME280;49820;33.966;73.390;2023-05-25T08:09:42;78642.44;;;22.37;61.24
63665;BME280;49820;33.966;73.390;2023-05-25T08:12:12;78652.53;;;22.71;59.47
63665;BME280;49820;33.966;73.390;2023-05-25T08:15:01;78600.03;;;21.98;66.54
63665;BME280;49820;33.966;73.390;2023-05-25T08:17:30;78632.09;;;21.85;74.35
63665;BME280;49820;33.966;73.390;2023-05-25T08:20:00;78632.25;;;21.93;64.84
63665;BME280;49820;33.966;73.390;2023-05-25T08:22:29;78625.50;;;21.37;66.68
63665;BME280;49820;33.966;73.390;2023-05-25T08:24:58;78550.44;;;20.40;73.71
63665;BME280;49820;33.966;73.390;2023-05-25T08:27:28;78622.84;;;20.67;66.62
63665;BME280;49820;33.966;73.390;2023-05-25T08:30:03;78625.41;;;20.46;68.21
63665;BME280;49820;33.966;73.390;2023-05-25T08:32:35;78623.19;;;20.61;76.20
63665;BME280;49820;33.966;73.390;2023-05-25T08:35:05;78620.97;;;21.10;76.18
63665;BME280;49820;33.966;73.390;2023-05-25T08:37:34;78615.81;;;20.83;72.27
63665;BME280;49820;33.966;73.390;2023-05-25T08:40:03;78586.66;;;21.83;67.17
63665;BME280;49820;33.966;73.390;2023-05-25T08:42:33;78593.03;;;21.12;72.31
63665;BME280;49820;33.966;73.390;2023-05-25T08:45:03;78601.41;;;20.50;75.16
63665;BME280;49820;33.966;73.390;2023-05-25T08:47:34;78591.81;;;20.28;82.54
63665;BME280;49820;33.966;73.390;2023-05-25T08:50:11;78608.00;;;19.81;87.62
63665;BME280;49820;33.966;73.390;2023-05-25T08:52:45;78571.56;;;19.04;95.59
63665;BME280;49820;33.966;73.390;2023-05-25T08:55:20;78593.63;;;19.22;99.05
63665;BME280;49820;33.966;73.390;2023-05-25T08:57:58;78610.66;;;19.33;95.12
63665;BME280;49820;33.966;73.390;2023-05-25T09:00:35;78582.41;;;19.04;100.00
63665;BME280;49820;33.966;73.390;2023-05-25T09:03:15;78586.47;;;18.65;100.00
63665;BME280;49820;33.966;73.390;2023-05-25T09:05:46;78576.41;;;18.77;100.00
63665;BME280;49820;33.966;73.390;2023-05-25T09:08:16;78556.94;;;19.12;100.00
63665;BME280;49820;33.966;73.390;2023-05-25T09:10:45;78595.56;;;19.74;100.00
63665;BME280;49820;33.966;73.390;2023-05-25T09:13:14;78587.16;;;19.17;98.51
63665;BME280;49820;33.966;73.390;2023-05-25T09:15:49;78575.13;;;18.88;97.37
63665;BME280;49820;33.966;73.390;2023-05-25T09:18:21;78566.81;;;19.05;100.00
63665;BME280;49820;33.966;73.390;2023-05-25T09:20:50;78566.09;;;19.55;100.00
63665;BME280;49820;33.966;73.390;2023-05-25T09:23:20;78547.03;;;19.57;94.76
63665;BME280;49820;33.966;73.390;2023-05-25T09:25:50;78589.72;;;20.65;88.15
63665;BME280;49820;33.966;73.390;2023-05-25T09:28:19;78580.34;;;19.79;99.58
63665;BME280;49820;33.966;73.390;2023-05-25T09:30:54;78586.28;;;19.20;100.00
63665;BME280;49820;33.966;73.390;2023-05-25T09:33:23;78555.31;;;18.66;100.00
63665;BME280;49820;33.966;73.390;2023-05-25T09:35:52;78555.34;;;18.26;100.00
63665;BME280;49820;33.966;73.390;2023-05-25T09:38:22;78571.44;;;18.16;100.00
63665;BME280;49820;33.966;73.390;2023-05-25T09:40:52;78554.50;;;17.63;100.00
63665;BME280;49820;33.966;73.390;2023-05-25T09:43:22;78568.50;;;17.80;100.00
63665;BME280;49820;33.966;73.390;2023-05-25T09:46:10;78585.78;;;17.58;100.00
63665;BME280;49820;33.966;73.390;2023-05-25T09:48:39;78564.84;;;17.85;100.00
63665;BME280;49820;33.966;73.390;2023-05-25T09:51:10;78557.47;;;17.84;100.00
63665;BME280;49820;33.966;73.390;2023-05-25T09:53:40;78586.38;;;18.67;100.00
63665;BME280;49820;33.966;73.390;2023-05-25T09:56:10;78509.16;;;18.30;100.00
63665;BME280;49820;33.966;73.390;2023-05-25T09:58:40;78539.84;;;18.78;100.00
63665;BME280;49820;33.966;73.390;2023-05-25T10:01:10;78543.44;;;19.61;100.00
63665;BME280;49820;33.966;73.390;2023-05-25T10:03:45;78576.81;;;20.06;100.00
63665;BME280;49820;33.966;73.390;2023-05-25T10:06:31;78558.72;;;19.66;100.00
63665;BME280;49820;33.966;73.390;2023-05-25T10:09:01;78553.75;;;19.46;100.00
63665;BME280;49820;33.966;73.390;2023-05-25T10:11:33;78539.03;;;20.61;100.00
63665;BME280;49820;33.966;73.390;2023-05-25T10:14:06;78531.44;;;21.53;93.30
63665;BME280;49820;33.966;73.390;2023-05-25T10:16:38;78537.34;;;22.00;85.47
63665;BME280;49820;33.966;73.390;2023-05-25T10:19:11;78530.41;;;22.54;80.94
63665;BME280;49820;33.966;73.390;2023-05-25T10:21:57;78497.69;;;21.92;79.13
63665;BME280;49820;33.966;73.390;2023-05-25T10:25:30;78520.94;;;21.36;83.48
63665;BME280;49820;33.966;73.390;2023-05-25T10:27:40;78482.16;;;21.69;78.48
63665;BME280;49820;33.966;73.390;2023-05-25T10:30:11;78533.25;;;21.46;83.26
63665;BME280;49820;33.966;73.390;2023-05-25T10:32:48;78516.88;;;22.12;83.16
63665;BME280;49820;33.966;73.390;2023-05-25T10:35:18;78480.22;;;22.21;79.82
63665;BME280;49820;33.966;73.390;2023-05-25T10:37:50;78521.47;;;21.39;79.86
63665;BME280;49820;33.966;73.390;2023-05-25T10:40:20;78507.38;;;21.68;78.44
63665;BME280;49820;33.966;73.390;2023-05-25T10:42:50;78522.97;;;21.25;78.57
63665;BME280;49820;33.966;73.390;2023-05-25T10:45:19;78531.28;;;21.23;87.72
63665;BME280;49820;33.966;73.390;2023-05-25T10:47:50;78516.50;;;20.52;75.29
63665;BME280;49820;33.966;73.390;2023-05-25T10:50:24;78507.81;;;20.73;87.99
63665;BME280;49820;33.966;73.390;2023-05-25T10:53:12;78526.31;;;22.23;73.00
63665;BME280;49820;33.966;73.390;2023-05-25T10:58:21;78545.72;;;22.60;63.66
63665;BME280;49820;33.966;73.390;2023-05-25T11:01:16;78548.88;;;23.05;69.85
63665;BME280;49820;33.966;73.390;2023-05-25T11:06:20;78548.72;;;23.77;62.56
63665;BME280;49820;33.966;73.390;2023-05-25T11:08:53;78537.81;;;23.58;58.30
63665;BME280;49820;33.966;73.390;2023-05-25T11:14:29;78593.31;;;21.97;54.84
63665;BME280;49820;33.966;73.390;2023-05-25T11:17:09;78600.63;;;21.32;57.13
63665;BME280;49820;33.966;73.390;2023-05-25T11:22:21;78606.66;;;22.33;70.22
63665;BME280;49820;33.966;73.390;2023-05-25T11:24:52;78599.53;;;22.49;74.39
63665;BME280;49820;33.966;73.390;2023-05-25T11:27:29;78605.25;;;20.66;80.63
63665;BME280;49820;33.966;73.390;2023-05-25T11:29:59;78594.19;;;19.98;82.71
63665;BME280;49820;33.966;73.390;2023-05-25T11:32:28;78582.81;;;19.22;92.93
63665;BME280;49820;33.966;73.390;2023-05-25T11:34:57;78584.13;;;18.72;96.51
63665;BME280;49820;33.966;73.390;2023-05-25T11:37:26;78606.72;;;18.66;100.00
63665;BME280;49820;33.966;73.390;2023-05-25T11:39:58;78576.19;;;19.06;92.56
63665;BME280;49820;33.966;73.390;2023-05-25T11:42:28;78606.19;;;18.64;96.50
63665;BME280;49820;33.966;73.390;2023-05-25T11:45:01;78606.09;;;19.17;96.09
63665;BME280;49820;33.966;73.390;2023-05-25T11:47:30;78594.50;;;19.18;96.62
63665;BME280;49820;33.966;73.390;2023-05-25T11:50:02;78600.25;;;18.99;100.00
63665;BME280;49820;33.966;73.390;2023-05-25T11:52:31;78599.59;;;18.99;100.00
63665;BME280;49820;33.966;73.390;2023-05-25T11:55:00;78579.06;;;20.14;84.04
63665;BME280;49820;33.966;73.390;2023-05-25T11:57:28;78603.44;;;20.27;70.86
63665;BME280;49820;33.966;73.390;2023-05-25T11:59:58;78570.84;;;20.63;79.79
63665;BME280;49820;33.966;73.390;2023-05-25T12:02:39;78584.81;;;21.69;78.83
63665;BME280;49820;33.966;73.390;2023-05-25T12:05:09;78536.50;;;21.59;76.89
63665;BME280;49820;33.966;73.390;2023-05-25T12:07:43;78559.63;;;21.37;65.57
63665;BME280;49820;33.966;73.390;2023-05-25T12:10:15;78551.13;;;21.09;68.88
63665;BME280;49820;33.966;73.390;2023-05-25T12:12:48;78551.38;;;21.39;66.81
63665;BME280;49820;33.966;73.390;2023-05-25T12:15:22;78545.94;;;21.39;71.35
63665;BME280;49820;33.966;73.390;2023-05-25T12:17:53;78520.97;;;21.02;68.81
63665;BME280;49820;33.966;73.390;2023-05-25T12:20:22;78526.31;;;20.81;78.41
63665;BME280;49820;33.966;73.390;2023-05-25T12:23:08;78518.22;;;20.58;72.62
63665;BME280;49820;33.966;73.390;2023-05-25T12:25:37;78518.06;;;20.26;70.68
63665;BME280;49820;33.966;73.390;2023-05-25T12:28:17;78481.53;;;19.65;73.67
63665;BME280;49820;33.966;73.390;2023-05-25T12:30:47;78483.41;;;19.56;72.64
63665;BME280;49820;33.966;73.390;2023-05-25T12:33:16;78473.66;;;19.13;64.23
63665;BME280;49820;33.966;73.390;2023-05-25T12:35:47;78473.09;;;19.10;63.21
63665;BME280;49820;33.966;73.390;2023-05-25T12:38:18;78444.81;;;18.71;68.83
63665;BME280;49820;33.966;73.390;2023-05-25T12:41:03;78451.50;;;18.47;66.77
63665;BME280;49820;33.966;73.390;2023-05-25T12:43:39;78480.91;;;18.15;69.89
63665;BME280;49820;33.966;73.390;2023-05-25T12:46:11;78453.56;;;17.68;75.46
63665;BME280;49820;33.966;73.390;2023-05-25T12:48:52;78486.09;;;17.39;85.21
63665;BME280;49820;33.966;73.390;2023-05-25T12:51:21;78452.19;;;17.02;86.95
63665;BME280;49820;33.966;73.390;2023-05-25T12:53:50;78447.22;;;16.64;96.12
63665;BME280;49820;33.966;73.390;2023-05-25T12:56:20;78461.34;;;16.79;97.05
63665;BME280;49820;33.966;73.390;2023-05-25T12:58:50;78494.38;;;16.65;100.00
63665;BME280;49820;33.966;73.390;2023-05-25T13:01:19;78500.22;;;16.55;100.00
63665;BME280;49820;33.966;73.390;2023-05-25T13:03:48;78488.91;;;16.53;98.22
63665;BME280;49820;33.966;73.390;2023-05-25T13:06:17;78489.81;;;16.47;97.11
63665;BME280;49820;33.966;73.390;2023-05-25T13:08:46;78478.03;;;16.11;98.84
63665;BME280;49820;33.966;73.390;2023-05-25T13:11:15;78505.94;;;16.05;100.00
63665;BME280;49820;33.966;73.390;2023-05-25T13:13:44;78506.34;;;15.80;100.00
63665;BME280;49820;33.966;73.390;2023-05-25T13:16:14;78516.34;;;15.67;100.00
63665;BME280;49820;33.966;73.390;2023-05-25T13:18:43;78513.78;;;15.48;100.00
63665;BME280;49820;33.966;73.390;2023-05-25T13:21:12;78517.53;;;15.24;100.00
63665;BME280;49820;33.966;73.390;2023-05-25T13:23:41;78546.63;;;15.19;100.00
63665;BME280;49820;33.966;73.390;2023-05-25T13:26:10;78522.38;;;14.88;100.00
63665;BME280;49820;33.966;73.390;2023-05-25T13:28:40;78574.53;;;15.12;100.00
63665;BME280;49820;33.966;73.390;2023-05-25T13:31:09;78570.84;;;15.03;100.00
63665;BME280;49820;33.966;73.390;2023-05-25T13:33:38;78573.31;;;14.92;100.00
63665;BME280;49820;33.966;73.390;2023-05-25T13:36:07;78572.25;;;14.85;100.00
63665;BME280;49820;33.966;73.390;2023-05-25T13:38:37;78582.69;;;14.76;100.00
63665;BME280;49820;33.966;73.390;2023-05-25T13:41:06;78579.34;;;14.59;100.00
63665;BME280;49820;33.966;73.390;2023-05-25T13:43:36;78546.13;;;14.31;100.00
63665;BME280;49820;33.966;73.390;2023-05-25T13:46:05;78588.03;;;14.60;100.00
63665;BME280;49820;33.966;73.390;2023-05-25T13:48:42;78582.56;;;14.45;100.00
63665;BME280;49820;33.966;73.390;2023-05-25T13:51:15;78597.75;;;14.34;100.00
63665;BME280;49820;33.966;73.390;2023-05-25T13:53:45;78586.19;;;14.37;100.00
63665;BME280;49820;33.966;73.390;2023-05-25T13:56:19;78572.66;;;14.23;100.00
63665;BME280;49820;33.966;73.390;2023-05-25T13:58:48;78577.75;;;14.12;100.00
63665;BME280;49820;33.966;73.390;2023-05-25T14:01:17;78565.94;;;14.05;100.00
63665;BME280;49820;33.966;73.390;2023-05-25T14:03:47;78566.00;;;14.03;100.00
63665;BME280;49820;33.966;73.390;2023-05-25T14:06:16;78567.19;;;13.89;100.00
63665;BME280;49820;33.966;73.390;2023-05-25T14:08:46;78575.78;;;13.94;100.00
63665;BME280;49820;33.966;73.390;2023-05-25T14:11:15;78591.09;;;13.79;100.00
63665;BME280;49820;33.966;73.390;2023-05-25T14:13:53;78569.41;;;13.66;100.00
63665;BME280;49820;33.966;73.390;2023-05-25T14:16:22;78540.47;;;13.50;100.00
63665;BME280;49820;33.966;73.390;2023-05-25T14:18:51;78536.84;;;13.38;100.00
63665;BME280;49820;33.966;73.390;2023-05-25T14:21:20;78544.88;;;13.38;100.00
63665;BME280;49820;33.966;73.390;2023-05-25T14:23:50;78559.78;;;13.35;100.00
63665;BME280;49820;33.966;73.390;2023-05-25T14:26:19;78551.59;;;13.00;100.00
63665;BME280;49820;33.966;73.390;2023-05-25T14:28:50;78557.56;;;13.03;100.00
63665;BME280;49820;33.966;73.390;2023-05-25T14:31:19;78444.94;;;12.07;100.00
63665;BME280;49820;33.966;73.390;2023-05-25T14:33:48;78563.03;;;12.80;100.00
